sensor_id;sensor_type;location;lat;lon;timestamp;temperature;humidity
67064;SHT30;58476;48.072;11.970;2023-04-24T00:00:34;22.46;53.58
67064;SHT30;58476;48.072;11.970;2023-04-24T00:03:00;22.44;53.55
67064;SHT30;58476;48.072;11.970;2023-04-24T00:05:25;22.41;53.64
67064;SHT30;58476;48.072;11.970;2023-04-24T00:07:51;22.40;53.57
67064;SHT30;58476;48.072;11.970;2023-04-24T00:10:16;22.39;53.55
67064;SHT30;58476;48.072;11.970;2023-04-24T00:12:41;22.37;53.58
67064;SHT30;58476;48.072;11.970;2023-04-24T00:15:07;22.39;53.61
67064;SHT30;58476;48.072;11.970;2023-04-24T00:17:33;22.37;53.60
67064;SHT30;58476;48.072;11.970;2023-04-24T00:19:58;22.40;53.61
67064;SHT30;58476;48.072;11.970;2023-04-24T00:22:24;22.39;53.48
67064;SHT30;58476;48.072;11.970;2023-04-24T00:24:50;22.44;53.36
67064;SHT30;58476;48.072;11.970;2023-04-24T00:27:15;22.43;53.27
67064;SHT30;58476;48.072;11.970;2023-04-24T00:29:40;22.44;53.36
67064;SHT30;58476;48.072;11.970;2023-04-24T00:32:06;22.47;53.21
67064;SHT30;58476;48.072;11.970;2023-04-24T00:34:31;22.48;53.25
67064;SHT30;58476;48.072;11.970;2023-04-24T00:36:57;22.48;53.16
67064;SHT30;58476;48.072;11.970;2023-04-24T00:39:22;22.50;53.05
67064;SHT30;58476;48.072;11.970;2023-04-24T00:41:48;22.54;53.06
67064;SHT30;58476;48.072;11.970;2023-04-24T00:44:14;22.53;52.98
67064;SHT30;58476;48.072;11.970;2023-04-24T00:46:39;22.54;52.96
67064;SHT30;58476;48.072;11.970;2023-04-24T00:49:05;22.57;52.86
67064;SHT30;58476;48.072;11.970;2023-04-24T00:51:30;22.55;52.83
67064;SHT30;58476;48.072;11.970;2023-04-24T00:53:56;22.58;52.81
67064;SHT30;58476;48.072;11.970;2023-04-24T00:56:21;22.57;52.76
67064;SHT30;58476;48.072;11.970;2023-04-24T00:58:47;22.58;52.77
67064;SHT30;58476;48.072;11.970;2023-04-24T01:01:12;22.60;52.78
67064;SHT30;58476;48.072;11.970;2023-04-24T01:03:38;22.55;52.82
67064;SHT30;58476;48.072;11.970;2023-04-24T01:06:04;22.55;52.85
67064;SHT30;58476;48.072;11.970;2023-04-24T01:08:30;22.58;52.82
67064;SHT30;58476;48.072;11.970;2023-04-24T01:10:57;22.58;52.72
67064;SHT30;58476;48.072;11.970;2023-04-24T01:13:22;22.57;52.69
67064;SHT30;58476;48.072;11.970;2023-04-24T01:15:48;22.60;52.74
67064;SHT30;58476;48.072;11.970;2023-04-24T01:18:14;22.58;52.68
67064;SHT30;58476;48.072;11.970;2023-04-24T01:20:40;22.60;52.64
67064;SHT30;58476;48.072;11.970;2023-04-24T01:23:07;22.58;52.70
67064;SHT30;58476;48.072;11.970;2023-04-24T01:25:33;22.57;52.53
67064;SHT30;58476;48.072;11.970;2023-04-24T01:27:59;22.57;52.81
67064;SHT30;58476;48.072;11.970;2023-04-24T01:30:25;22.53;52.84
67064;SHT30;58476;48.072;11.970;2023-04-24T01:32:51;22.51;52.92
67064;SHT30;58476;48.072;11.970;2023-04-24T01:35:17;22.50;52.95
67064;SHT30;58476;48.072;11.970;2023-04-24T01:37:42;22.44;52.97
67064;SHT30;58476;48.072;11.970;2023-04-24T01:40:08;22.48;52.97
67064;SHT30;58476;48.072;11.970;2023-04-24T01:42:34;22.46;53.06
67064;SHT30;58476;48.072;11.970;2023-04-24T01:45:02;22.46;53.05
67064;SHT30;58476;48.072;11.970;2023-04-24T01:47:30;22.39;53.10
67064;SHT30;58476;48.072;11.970;2023-04-24T01:49:56;22.39;53.14
67064;SHT30;58476;48.072;11.970;2023-04-24T01:52:21;22.37;53.06
67064;SHT30;58476;48.072;11.970;2023-04-24T01:54:47;22.36;53.12
67064;SHT30;58476;48.072;11.970;2023-04-24T01:57:13;22.37;53.17
67064;SHT30;58476;48.072;11.970;2023-04-24T01:59:40;22.33;53.21
67064;SHT30;58476;48.072;11.970;2023-04-24T02:02:05;22.33;53.19
67064;SHT30;58476;48.072;11.970;2023-04-24T02:04:31;22.29;53.20
67064;SHT30;58476;48.072;11.970;2023-04-24T02:06:57;22.30;53.25
67064;SHT30;58476;48.072;11.970;2023-04-24T02:09:23;22.29;53.18
67064;SHT30;58476;48.072;11.970;2023-04-24T02:11:49;22.26;53.23
67064;SHT30;58476;48.072;11.970;2023-04-24T02:14:14;22.26;53.16
67064;SHT30;58476;48.072;11.970;2023-04-24T02:16:40;22.24;53.22
67064;SHT30;58476;48.072;11.970;2023-04-24T02:19:05;22.23;53.17
67064;SHT30;58476;48.072;11.970;2023-04-24T02:21:31;22.21;53.22
67064;SHT30;58476;48.072;11.970;2023-04-24T02:23:57;22.24;53.12
67064;SHT30;58476;48.072;11.970;2023-04-24T02:26:22;22.20;53.23
67064;SHT30;58476;48.072;11.970;2023-04-24T02:28:50;22.17;53.23
67064;SHT30;58476;48.072;11.970;2023-04-24T02:31:16;22.18;53.25
67064;SHT30;58476;48.072;11.970;2023-04-24T02:33:41;22.17;53.24
67064;SHT30;58476;48.072;11.970;2023-04-24T02:36:06;22.17;53.23
67064;SHT30;58476;48.072;11.970;2023-04-24T02:38:32;22.14;53.25
67064;SHT30;58476;48.072;11.970;2023-04-24T02:40:57;22.13;53.26
67064;SHT30;58476;48.072;11.970;2023-04-24T02:43:25;22.13;53.16
67064;SHT30;58476;48.072;11.970;2023-04-24T02:45:50;22.10;53.27
67064;SHT30;58476;48.072;11.970;2023-04-24T02:48:16;22.12;53.19
67064;SHT30;58476;48.072;11.970;2023-04-24T02:50:41;22.12;53.29
67064;SHT30;58476;48.072;11.970;2023-04-24T02:53:07;22.09;53.20
67064;SHT30;58476;48.072;11.970;2023-04-24T02:55:32;22.10;53.20
67064;SHT30;58476;48.072;11.970;2023-04-24T02:57:57;22.07;53.19
67064;SHT30;58476;48.072;11.970;2023-04-24T03:00:23;22.12;53.01
67064;SHT30;58476;48.072;11.970;2023-04-24T03:02:48;22.13;53.01
67064;SHT30;58476;48.072;11.970;2023-04-24T03:05:14;22.12;52.97
67064;SHT30;58476;48.072;11.970;2023-04-24T03:07:39;22.16;52.91
67064;SHT30;58476;48.072;11.970;2023-04-24T03:10:05;22.20;52.85
67064;SHT30;58476;48.072;11.970;2023-04-24T03:12:30;22.21;52.80
67064;SHT30;58476;48.072;11.970;2023-04-24T03:14:56;22.20;52.69
67064;SHT30;58476;48.072;11.970;2023-04-24T03:17:21;22.21;52.74
67064;SHT30;58476;48.072;11.970;2023-04-24T03:19:46;22.24;52.67
67064;SHT30;58476;48.072;11.970;2023-04-24T03:22:12;22.26;52.62
67064;SHT30;58476;48.072;11.970;2023-04-24T03:24:38;22.26;52.59
67064;SHT30;58476;48.072;11.970;2023-04-24T03:27:04;22.27;52.45
67064;SHT30;58476;48.072;11.970;2023-04-24T03:29:48;22.29;52.37
67064;SHT30;58476;48.072;11.970;2023-04-24T03:32:15;22.29;52.41
67064;SHT30;58476;48.072;11.970;2023-04-24T03:34:41;22.29;52.38
67064;SHT30;58476;48.072;11.970;2023-04-24T03:37:08;22.29;52.36
67064;SHT30;58476;48.072;11.970;2023-04-24T03:39:39;22.30;52.30
67064;SHT30;58476;48.072;11.970;2023-04-24T03:42:05;22.30;52.34
67064;SHT30;58476;48.072;11.970;2023-04-24T03:44:41;22.34;52.43
67064;SHT30;58476;48.072;11.970;2023-04-24T03:47:06;22.32;52.48
67064;SHT30;58476;48.072;11.970;2023-04-24T03:49:32;22.39;52.87
67064;SHT30;58476;48.072;11.970;2023-04-24T03:51:58;22.39;53.10
67064;SHT30;58476;48.072;11.970;2023-04-24T03:54:25;22.43;53.30
67064;SHT30;58476;48.072;11.970;2023-04-24T03:56:52;22.47;53.71
67064;SHT30;58476;48.072;11.970;2023-04-24T03:59:18;22.43;53.30
67064;SHT30;58476;48.072;11.970;2023-04-24T04:01:48;22.47;53.05
67064;SHT30;58476;48.072;11.970;2023-04-24T04:04:15;22.39;53.03
67064;SHT30;58476;48.072;11.970;2023-04-24T04:06:42;22.41;53.18
67064;SHT30;58476;48.072;11.970;2023-04-24T04:09:08;22.40;53.19
67064;SHT30;58476;48.072;11.970;2023-04-24T04:11:34;22.41;53.36
67064;SHT30;58476;48.072;11.970;2023-04-24T04:14:00;22.41;53.59
67064;SHT30;58476;48.072;11.970;2023-04-24T04:16:26;22.40;53.70
67064;SHT30;58476;48.072;11.970;2023-04-24T04:18:56;22.40;53.55
67064;SHT30;58476;48.072;11.970;2023-04-24T04:21:22;22.40;53.71
67064;SHT30;58476;48.072;11.970;2023-04-24T04:23:50;22.40;53.44
67064;SHT30;58476;48.072;11.970;2023-04-24T04:26:24;22.39;53.45
67064;SHT30;58476;48.072;11.970;2023-04-24T04:29:01;22.37;53.53
67064;SHT30;58476;48.072;11.970;2023-04-24T04:31:27;22.36;53.30
67064;SHT30;58476;48.072;11.970;2023-04-24T04:33:53;22.36;53.50
67064;SHT30;58476;48.072;11.970;2023-04-24T04:36:19;22.32;53.71
67064;SHT30;58476;48.072;11.970;2023-04-24T04:38:50;22.27;53.85
67064;SHT30;58476;48.072;11.970;2023-04-24T04:41:31;22.27;53.55
67064;SHT30;58476;48.072;11.970;2023-04-24T04:43:56;22.24;53.43
67064;SHT30;58476;48.072;11.970;2023-04-24T04:46:22;22.20;53.18
67064;SHT30;58476;48.072;11.970;2023-04-24T04:49:06;22.21;53.20
67064;SHT30;58476;48.072;11.970;2023-04-24T04:51:31;22.21;53.11
67064;SHT30;58476;48.072;11.970;2023-04-24T04:53:56;22.21;53.17
67064;SHT30;58476;48.072;11.970;2023-04-24T04:56:22;22.23;53.12
67064;SHT30;58476;48.072;11.970;2023-04-24T04:58:48;22.24;53.15
67064;SHT30;58476;48.072;11.970;2023-04-24T05:01:15;22.29;53.23
67064;SHT30;58476;48.072;11.970;2023-04-24T05:03:44;22.33;53.18
67064;SHT30;58476;48.072;11.970;2023-04-24T05:06:12;22.34;53.69
67064;SHT30;58476;48.072;11.970;2023-04-24T05:08:39;22.34;53.31
67064;SHT30;58476;48.072;11.970;2023-04-24T05:11:07;22.23;52.02
67064;SHT30;58476;48.072;11.970;2023-04-24T05:13:33;22.14;51.93
67064;SHT30;58476;48.072;11.970;2023-04-24T05:16:00;22.12;50.26
67064;SHT30;58476;48.072;11.970;2023-04-24T05:18:26;22.10;51.36
67064;SHT30;58476;48.072;11.970;2023-04-24T05:20:51;22.12;51.20
67064;SHT30;58476;48.072;11.970;2023-04-24T05:23:17;22.13;50.84
67064;SHT30;58476;48.072;11.970;2023-04-24T05:25:45;22.12;50.95
67064;SHT30;58476;48.072;11.970;2023-04-24T05:28:11;22.14;50.98
67064;SHT30;58476;48.072;11.970;2023-04-24T05:30:37;22.12;51.11
67064;SHT30;58476;48.072;11.970;2023-04-24T05:33:02;22.18;51.17
67064;SHT30;58476;48.072;11.970;2023-04-24T05:35:29;22.20;51.13
67064;SHT30;58476;48.072;11.970;2023-04-24T05:37:55;22.18;51.25
67064;SHT30;58476;48.072;11.970;2023-04-24T05:40:20;22.18;51.07
67064;SHT30;58476;48.072;11.970;2023-04-24T05:42:47;22.17;51.17
67064;SHT30;58476;48.072;11.970;2023-04-24T05:45:12;22.21;51.18
67064;SHT30;58476;48.072;11.970;2023-04-24T05:47:37;22.20;51.28
67064;SHT30;58476;48.072;11.970;2023-04-24T05:50:05;22.18;51.36
67064;SHT30;58476;48.072;11.970;2023-04-24T05:52:30;22.20;51.44
67064;SHT30;58476;48.072;11.970;2023-04-24T05:54:55;22.17;51.30
67064;SHT30;58476;48.072;11.970;2023-04-24T05:57:24;22.18;51.51
67064;SHT30;58476;48.072;11.970;2023-04-24T05:59:57;22.20;51.45
67064;SHT30;58476;48.072;11.970;2023-04-24T06:02:22;22.21;51.80
67064;SHT30;58476;48.072;11.970;2023-04-24T06:04:48;22.18;52.07
67064;SHT30;58476;48.072;11.970;2023-04-24T06:07:13;22.20;51.92
67064;SHT30;58476;48.072;11.970;2023-04-24T06:09:40;22.18;51.83
67064;SHT30;58476;48.072;11.970;2023-04-24T06:12:06;22.18;51.78
67064;SHT30;58476;48.072;11.970;2023-04-24T06:14:45;22.17;51.80
67064;SHT30;58476;48.072;11.970;2023-04-24T06:17:33;22.14;51.93
67064;SHT30;58476;48.072;11.970;2023-04-24T06:19:58;22.14;52.00
67064;SHT30;58476;48.072;11.970;2023-04-24T06:22:24;22.14;52.00
67064;SHT30;58476;48.072;11.970;2023-04-24T06:24:49;22.12;52.07
67064;SHT30;58476;48.072;11.970;2023-04-24T06:27:15;22.10;52.24
67064;SHT30;58476;48.072;11.970;2023-04-24T06:29:40;22.06;52.33
67064;SHT30;58476;48.072;11.970;2023-04-24T06:32:05;22.10;52.39
67064;SHT30;58476;48.072;11.970;2023-04-24T06:34:31;22.06;52.30
67064;SHT30;58476;48.072;11.970;2023-04-24T06:36:57;22.03;52.37
67064;SHT30;58476;48.072;11.970;2023-04-24T06:39:22;22.02;52.53
67064;SHT30;58476;48.072;11.970;2023-04-24T06:41:47;22.05;52.84
67064;SHT30;58476;48.072;11.970;2023-04-24T06:44:18;22.03;52.81
67064;SHT30;58476;48.072;11.970;2023-04-24T06:46:43;22.02;53.16
67064;SHT30;58476;48.072;11.970;2023-04-24T06:49:09;22.00;52.87
67064;SHT30;58476;48.072;11.970;2023-04-24T06:51:34;21.96;52.74
67064;SHT30;58476;48.072;11.970;2023-04-24T06:53:59;21.97;53.17
67064;SHT30;58476;48.072;11.970;2023-04-24T06:56:26;21.95;53.01
67064;SHT30;58476;48.072;11.970;2023-04-24T06:58:51;21.96;53.21
67064;SHT30;58476;48.072;11.970;2023-04-24T07:01:17;21.95;53.10
67064;SHT30;58476;48.072;11.970;2023-04-24T07:03:42;21.93;52.87
67064;SHT30;58476;48.072;11.970;2023-04-24T07:06:08;21.92;52.96
67064;SHT30;58476;48.072;11.970;2023-04-24T07:08:34;21.93;53.03
67064;SHT30;58476;48.072;11.970;2023-04-24T07:10:59;21.95;53.03
67064;SHT30;58476;48.072;11.970;2023-04-24T07:13:25;21.92;53.08
67064;SHT30;58476;48.072;11.970;2023-04-24T07:15:50;21.93;53.11
67064;SHT30;58476;48.072;11.970;2023-04-24T07:18:16;21.90;53.08
67064;SHT30;58476;48.072;11.970;2023-04-24T07:20:42;21.92;53.13
67064;SHT30;58476;48.072;11.970;2023-04-24T07:23:07;21.90;53.12
67064;SHT30;58476;48.072;11.970;2023-04-24T07:25:33;21.89;53.08
67064;SHT30;58476;48.072;11.970;2023-04-24T07:27:58;21.86;53.08
67064;SHT30;58476;48.072;11.970;2023-04-24T07:30:24;21.90;53.12
67064;SHT30;58476;48.072;11.970;2023-04-24T07:32:49;21.89;53.10
67064;SHT30;58476;48.072;11.970;2023-04-24T07:35:14;21.90;53.08
67064;SHT30;58476;48.072;11.970;2023-04-24T07:37:40;21.88;53.07
67064;SHT30;58476;48.072;11.970;2023-04-24T07:40:06;21.90;52.68
67064;SHT30;58476;48.072;11.970;2023-04-24T07:42:31;21.95;52.56
67064;SHT30;58476;48.072;11.970;2023-04-24T07:44:56;21.96;52.52
67064;SHT30;58476;48.072;11.970;2023-04-24T07:47:22;22.00;52.63
67064;SHT30;58476;48.072;11.970;2023-04-24T07:49:47;22.03;52.75
67064;SHT30;58476;48.072;11.970;2023-04-24T07:52:13;22.07;52.61
67064;SHT30;58476;48.072;11.970;2023-04-24T07:54:38;22.14;52.51
67064;SHT30;58476;48.072;11.970;2023-04-24T07:57:04;22.16;52.61
67064;SHT30;58476;48.072;11.970;2023-04-24T07:59:29;22.16;52.54
67064;SHT30;58476;48.072;11.970;2023-04-24T08:01:54;22.17;52.39
67064;SHT30;58476;48.072;11.970;2023-04-24T08:04:20;22.20;52.49
67064;SHT30;58476;48.072;11.970;2023-04-24T08:06:47;22.18;52.45
67064;SHT30;58476;48.072;11.970;2023-04-24T08:09:12;22.20;52.36
67064;SHT30;58476;48.072;11.970;2023-04-24T08:11:38;22.24;52.42
67064;SHT30;58476;48.072;11.970;2023-04-24T08:14:03;22.21;52.23
67064;SHT30;58476;48.072;11.970;2023-04-24T08:16:28;22.26;52.20
67064;SHT30;58476;48.072;11.970;2023-04-24T08:18:54;22.27;52.19
67064;SHT30;58476;48.072;11.970;2023-04-24T08:21:19;22.26;52.07
67064;SHT30;58476;48.072;11.970;2023-04-24T08:23:45;22.27;52.24
67064;SHT30;58476;48.072;11.970;2023-04-24T08:26:11;22.27;51.97
67064;SHT30;58476;48.072;11.970;2023-04-24T08:28:36;22.29;51.90
67064;SHT30;58476;48.072;11.970;2023-04-24T08:31:02;22.27;52.02
67064;SHT30;58476;48.072;11.970;2023-04-24T08:33:27;22.27;51.94
67064;SHT30;58476;48.072;11.970;2023-04-24T08:35:53;22.27;51.88
67064;SHT30;58476;48.072;11.970;2023-04-24T08:38:18;22.29;51.91
67064;SHT30;58476;48.072;11.970;2023-04-24T08:40:44;22.29;51.99
67064;SHT30;58476;48.072;11.970;2023-04-24T08:43:09;22.26;51.96
67064;SHT30;58476;48.072;11.970;2023-04-24T08:45:36;22.26;51.93
67064;SHT30;58476;48.072;11.970;2023-04-24T08:48:02;22.23;52.00
67064;SHT30;58476;48.072;11.970;2023-04-24T08:50:28;22.23;52.05
67064;SHT30;58476;48.072;11.970;2023-04-24T08:52:54;22.23;52.11
67064;SHT30;58476;48.072;11.970;2023-04-24T08:55:20;22.21;52.22
67064;SHT30;58476;48.072;11.970;2023-04-24T08:57:50;22.20;52.26
67064;SHT30;58476;48.072;11.970;2023-04-24T09:00:16;22.13;52.34
67064;SHT30;58476;48.072;11.970;2023-04-24T09:02:42;22.14;52.41
67064;SHT30;58476;48.072;11.970;2023-04-24T09:05:08;22.13;52.40
67064;SHT30;58476;48.072;11.970;2023-04-24T09:07:35;22.12;52.40
67064;SHT30;58476;48.072;11.970;2023-04-24T09:10:02;22.07;52.42
67064;SHT30;58476;48.072;11.970;2023-04-24T09:12:27;22.09;52.37
67064;SHT30;58476;48.072;11.970;2023-04-24T09:14:53;22.06;52.54
67064;SHT30;58476;48.072;11.970;2023-04-24T09:17:19;22.05;52.63
67064;SHT30;58476;48.072;11.970;2023-04-24T09:19:45;22.03;52.60
67064;SHT30;58476;48.072;11.970;2023-04-24T09:22:10;22.02;52.61
67064;SHT30;58476;48.072;11.970;2023-04-24T09:24:36;22.03;52.54
67064;SHT30;58476;48.072;11.970;2023-04-24T09:27:01;22.05;52.63
67064;SHT30;58476;48.072;11.970;2023-04-24T09:29:27;22.03;52.51
67064;SHT30;58476;48.072;11.970;2023-04-24T09:31:53;22.03;52.58
67064;SHT30;58476;48.072;11.970;2023-04-24T09:34:23;22.03;52.60
67064;SHT30;58476;48.072;11.970;2023-04-24T09:36:49;22.02;52.52
67064;SHT30;58476;48.072;11.970;2023-04-24T09:39:15;22.00;52.42
67064;SHT30;58476;48.072;11.970;2023-04-24T09:44:17;22.02;52.68
67064;SHT30;58476;48.072;11.970;2023-04-24T09:46:45;21.99;52.62
67064;SHT30;58476;48.072;11.970;2023-04-24T09:49:15;21.99;52.46
67064;SHT30;58476;48.072;11.970;2023-04-24T09:51:41;21.97;52.47
67064;SHT30;58476;48.072;11.970;2023-04-24T09:54:17;21.96;52.52
67064;SHT30;58476;48.072;11.970;2023-04-24T09:56:44;22.00;52.44
67064;SHT30;58476;48.072;11.970;2023-04-24T09:59:09;21.99;52.20
67064;SHT30;58476;48.072;11.970;2023-04-24T10:01:35;21.99;52.16
67064;SHT30;58476;48.072;11.970;2023-04-24T10:04:00;21.99;52.09
67064;SHT30;58476;48.072;11.970;2023-04-24T10:06:33;21.96;52.26
67064;SHT30;58476;48.072;11.970;2023-04-24T10:08:59;21.97;52.23
67064;SHT30;58476;48.072;11.970;2023-04-24T10:11:26;21.97;52.34
67064;SHT30;58476;48.072;11.970;2023-04-24T10:13:53;22.02;52.26
67064;SHT30;58476;48.072;11.970;2023-04-24T10:16:20;22.05;52.25
67064;SHT30;58476;48.072;11.970;2023-04-24T10:18:48;22.09;52.07
67064;SHT30;58476;48.072;11.970;2023-04-24T10:21:14;22.14;52.30
67064;SHT30;58476;48.072;11.970;2023-04-24T10:23:41;22.20;52.09
67064;SHT30;58476;48.072;11.970;2023-04-24T10:26:09;22.20;51.82
67064;SHT30;58476;48.072;11.970;2023-04-24T10:28:36;22.27;51.67
67064;SHT30;58476;48.072;11.970;2023-04-24T10:31:02;22.29;51.53
67064;SHT30;58476;48.072;11.970;2023-04-24T10:33:29;22.32;51.42
67064;SHT30;58476;48.072;11.970;2023-04-24T10:35:55;22.36;51.38
67064;SHT30;58476;48.072;11.970;2023-04-24T10:38:28;22.41;51.08
67064;SHT30;58476;48.072;11.970;2023-04-24T10:41:06;22.46;50.95
67064;SHT30;58476;48.072;11.970;2023-04-24T10:43:33;22.46;50.79
67064;SHT30;58476;48.072;11.970;2023-04-24T10:46:03;22.44;50.93
67064;SHT30;58476;48.072;11.970;2023-04-24T10:48:28;22.47;50.96
67064;SHT30;58476;48.072;11.970;2023-04-24T10:50:54;22.47;51.01
67064;SHT30;58476;48.072;11.970;2023-04-24T10:53:25;22.50;50.75
67064;SHT30;58476;48.072;11.970;2023-04-24T10:55:59;22.50;50.80
67064;SHT30;58476;48.072;11.970;2023-04-24T10:58:36;22.51;50.71
67064;SHT30;58476;48.072;11.970;2023-04-24T11:01:01;22.51;50.70
67064;SHT30;58476;48.072;11.970;2023-04-24T11:03:31;22.48;50.85
67064;SHT30;58476;48.072;11.970;2023-04-24T11:06:01;22.48;50.77
67064;SHT30;58476;48.072;11.970;2023-04-24T11:08:47;22.47;50.75
67064;SHT30;58476;48.072;11.970;2023-04-24T11:11:15;22.48;50.68
67064;SHT30;58476;48.072;11.970;2023-04-24T11:16:23;22.48;50.73
67064;SHT30;58476;48.072;11.970;2023-04-24T11:19:24;22.48;50.62
67064;SHT30;58476;48.072;11.970;2023-04-24T11:21:59;22.43;50.75
67064;SHT30;58476;48.072;11.970;2023-04-24T11:34:54;22.32;51.02
67064;SHT30;58476;48.072;11.970;2023-04-24T11:37:21;22.30;51.17
67064;SHT30;58476;48.072;11.970;2023-04-24T11:39:50;22.27;51.28
67064;SHT30;58476;48.072;11.970;2023-04-24T11:42:15;22.32;51.24
67064;SHT30;58476;48.072;11.970;2023-04-24T11:44:42;22.34;51.37
67064;SHT30;58476;48.072;11.970;2023-04-24T11:47:08;22.37;51.08
67064;SHT30;58476;48.072;11.970;2023-04-24T11:49:33;22.30;51.42
67064;SHT30;58476;48.072;11.970;2023-04-24T11:52:04;22.32;51.18
67064;SHT30;58476;48.072;11.970;2023-04-24T11:54:29;22.34;50.74
67064;SHT30;58476;48.072;11.970;2023-04-24T11:56:56;22.40;50.64
67064;SHT30;58476;48.072;11.970;2023-04-24T11:59:22;22.43;50.41
67064;SHT30;58476;48.072;11.970;2023-04-24T12:01:48;22.47;50.53
67064;SHT30;58476;48.072;11.970;2023-04-24T12:04:15;22.48;50.54
67064;SHT30;58476;48.072;11.970;2023-04-24T12:06:58;22.46;51.12
67064;SHT30;58476;48.072;11.970;2023-04-24T12:09:24;22.47;51.81
67064;SHT30;58476;48.072;11.970;2023-04-24T12:11:56;22.47;51.72
67064;SHT30;58476;48.072;11.970;2023-04-24T12:14:22;22.46;52.17
67064;SHT30;58476;48.072;11.970;2023-04-24T12:16:48;22.53;52.11
67064;SHT30;58476;48.072;11.970;2023-04-24T12:19:21;22.53;52.28
67064;SHT30;58476;48.072;11.970;2023-04-24T12:22:00;22.54;52.83
67064;SHT30;58476;48.072;11.970;2023-04-24T12:24:26;22.60;52.69
67064;SHT30;58476;48.072;11.970;2023-04-24T12:26:51;22.61;52.97
67064;SHT30;58476;48.072;11.970;2023-04-24T12:29:20;22.64;53.40
67064;SHT30;58476;48.072;11.970;2023-04-24T12:31:46;22.61;53.11
67064;SHT30;58476;48.072;11.970;2023-04-24T12:34:18;22.64;53.22
67064;SHT30;58476;48.072;11.970;2023-04-24T12:36:44;22.65;52.64
67064;SHT30;58476;48.072;11.970;2023-04-24T12:39:19;22.67;52.94
67064;SHT30;58476;48.072;11.970;2023-04-24T12:42:11;22.69;52.54
67064;SHT30;58476;48.072;11.970;2023-04-24T12:44:36;22.71;52.58
67064;SHT30;58476;48.072;11.970;2023-04-24T12:47:02;22.74;52.43
67064;SHT30;58476;48.072;11.970;2023-04-24T12:49:29;22.72;52.27
67064;SHT30;58476;48.072;11.970;2023-04-24T12:51:55;22.72;52.19
67064;SHT30;58476;48.072;11.970;2023-04-24T12:54:21;22.74;52.24
67064;SHT30;58476;48.072;11.970;2023-04-24T12:56:47;22.74;52.18
67064;SHT30;58476;48.072;11.970;2023-04-24T12:59:12;22.72;52.32
67064;SHT30;58476;48.072;11.970;2023-04-24T13:01:38;22.77;52.24
67064;SHT30;58476;48.072;11.970;2023-04-24T13:04:05;22.72;52.15
67064;SHT30;58476;48.072;11.970;2023-04-24T13:06:30;22.75;52.21
67064;SHT30;58476;48.072;11.970;2023-04-24T13:08:56;22.75;52.16
67064;SHT30;58476;48.072;11.970;2023-04-24T13:11:21;22.75;52.10
67064;SHT30;58476;48.072;11.970;2023-04-24T13:13:46;22.72;52.20
67064;SHT30;58476;48.072;11.970;2023-04-24T13:19:42;22.74;52.55
67064;SHT30;58476;48.072;11.970;2023-04-24T13:22:12;22.74;52.85
67064;SHT30;58476;48.072;11.970;2023-04-24T13:24:38;22.71;52.76
67064;SHT30;58476;48.072;11.970;2023-04-24T13:27:04;22.68;52.66
67064;SHT30;58476;48.072;11.970;2023-04-24T13:29:29;22.64;52.43
67064;SHT30;58476;48.072;11.970;2023-04-24T13:31:54;22.61;52.25
67064;SHT30;58476;48.072;11.970;2023-04-24T13:34:21;22.57;52.33
67064;SHT30;58476;48.072;11.970;2023-04-24T13:36:47;22.55;52.39
67064;SHT30;58476;48.072;11.970;2023-04-24T13:39:12;22.54;52.35
67064;SHT30;58476;48.072;11.970;2023-04-24T13:41:38;22.51;52.42
67064;SHT30;58476;48.072;11.970;2023-04-24T13:44:04;22.53;52.21
67064;SHT30;58476;48.072;11.970;2023-04-24T13:46:29;22.50;51.94
67064;SHT30;58476;48.072;11.970;2023-04-24T13:48:55;22.44;52.35
67064;SHT30;58476;48.072;11.970;2023-04-24T13:51:20;22.44;52.44
67064;SHT30;58476;48.072;11.970;2023-04-24T13:53:46;22.44;52.28
67064;SHT30;58476;48.072;11.970;2023-04-24T13:56:11;22.43;52.18
67064;SHT30;58476;48.072;11.970;2023-04-24T13:58:36;22.40;52.14
67064;SHT30;58476;48.072;11.970;2023-04-24T14:01:02;22.40;52.20
67064;SHT30;58476;48.072;11.970;2023-04-24T14:03:27;22.37;52.18
67064;SHT30;58476;48.072;11.970;2023-04-24T14:05:53;22.37;52.09
67064;SHT30;58476;48.072;11.970;2023-04-24T14:08:18;22.36;52.22
67064;SHT30;58476;48.072;11.970;2023-04-24T14:10:43;22.32;52.05
67064;SHT30;58476;48.072;11.970;2023-04-24T14:13:09;22.32;52.08
67064;SHT30;58476;48.072;11.970;2023-04-24T14:15:37;22.32;52.06
67064;SHT30;58476;48.072;11.970;2023-04-24T14:18:03;22.29;52.25
67064;SHT30;58476;48.072;11.970;2023-04-24T14:20:28;22.26;52.22
67064;SHT30;58476;48.072;11.970;2023-04-24T14:22:54;22.29;52.27
67064;SHT30;58476;48.072;11.970;2023-04-24T14:25:20;22.23;52.10
67064;SHT30;58476;48.072;11.970;2023-04-24T14:27:45;22.23;52.24
67064;SHT30;58476;48.072;11.970;2023-04-24T14:30:11;22.20;52.17
67064;SHT30;58476;48.072;11.970;2023-04-24T14:32:38;22.20;52.06
67064;SHT30;58476;48.072;11.970;2023-04-24T14:35:04;22.18;52.25
67064;SHT30;58476;48.072;11.970;2023-04-24T14:37:29;22.18;52.30
67064;SHT30;58476;48.072;11.970;2023-04-24T14:39:54;22.17;52.22
67064;SHT30;58476;48.072;11.970;2023-04-24T14:42:20;22.18;52.19
67064;SHT30;58476;48.072;11.970;2023-04-24T14:44:45;22.21;52.24
67064;SHT30;58476;48.072;11.970;2023-04-24T14:47:10;22.18;52.14
67064;SHT30;58476;48.072;11.970;2023-04-24T14:49:36;22.16;52.22
67064;SHT30;58476;48.072;11.970;2023-04-24T14:52:01;22.14;52.31
67064;SHT30;58476;48.072;11.970;2023-04-24T14:54:26;22.17;52.30
67064;SHT30;58476;48.072;11.970;2023-04-24T14:56:52;22.26;52.40
67064;SHT30;58476;48.072;11.970;2023-04-24T14:59:17;22.32;52.62
67064;SHT30;58476;48.072;11.970;2023-04-24T15:01:43;22.40;52.66
67064;SHT30;58476;48.072;11.970;2023-04-24T15:04:08;22.48;52.94
67064;SHT30;58476;48.072;11.970;2023-04-24T15:06:33;22.60;53.18
67064;SHT30;58476;48.072;11.970;2023-04-24T15:08:58;22.65;53.60
67064;SHT30;58476;48.072;11.970;2023-04-24T15:11:24;22.75;54.48
67064;SHT30;58476;48.072;11.970;2023-04-24T15:13:49;22.88;55.63
67064;SHT30;58476;48.072;11.970;2023-04-24T15:16:15;22.95;55.69
67064;SHT30;58476;48.072;11.970;2023-04-24T15:18:40;23.04;54.98
67064;SHT30;58476;48.072;11.970;2023-04-24T15:21:05;23.05;53.83
67064;SHT30;58476;48.072;11.970;2023-04-24T15:23:31;23.04;53.89
67064;SHT30;58476;48.072;11.970;2023-04-24T15:25:56;23.06;52.90
67064;SHT30;58476;48.072;11.970;2023-04-24T15:28:21;23.05;52.12
67064;SHT30;58476;48.072;11.970;2023-04-24T15:30:47;23.06;52.00